Time;durP1;ratioP1;P1;durP2;ratioP2;P2;SDS_P1;SDS_P2;PMS_P1;PMS_P2;Temp;Humidity;BMP_temperature;BMP_pressure;BME280_temperature;BME280_humidity;BME280_pressure;Samples;Min_cycle;Max_cycle;Signal;HPM_P1;HPM_P2
2021/12/26 00:02:06;;;;;;;2.75;1.48;;;;;;;-2.42;73.22;101000.34;5070596;28;20067;-74
2021/12/26 00:04:33;;;;;;;2.05;1.85;;;;;;;-2.46;72.24;101001.13;5060091;28;20332;-74
2021/12/26 00:06:58;;;;;;;3.60;1.92;;;;;;;-2.47;72.66;101003.66;5064368;28;20034;-74
2021/12/26 00:09:24;;;;;;;2.42;1.77;;;;;;;-2.50;72.63;101009.63;5059483;28;20041;-74
2021/12/26 00:11:49;;;;;;;4.47;2.33;;;;;;;-2.52;73.46;101011.31;5060998;28;20055;-74
2021/12/26 00:14:15;;;;;;;1.77;1.65;;;;;;;-2.53;72.87;101014.69;5060559;28;20029;-74
2021/12/26 00:16:42;;;;;;;3.78;1.83;;;;;;;-2.56;72.72;101012.97;5066909;28;20370;-74
2021/12/26 00:19:07;;;;;;;3.45;1.92;;;;;;;-2.59;72.14;101001.78;5065290;28;20036;-74
2021/12/26 00:21:33;;;;;;;3.50;2.22;;;;;;;-2.58;72.52;101000.97;5063703;28;20036;-74
2021/12/26 00:23:59;;;;;;;7.32;1.75;;;;;;;-2.55;73.27;100999.31;5070972;28;20429;-75
2021/12/26 00:26:24;;;;;;;3.47;2.05;;;;;;;-2.54;73.47;100995.88;5061367;28;20062;-75
2021/12/26 00:28:50;;;;;;;3.65;2.20;;;;;;;-2.56;73.16;100995.00;5068166;28;20033;-75
2021/12/26 00:31:16;;;;;;;3.17;1.90;;;;;;;-2.58;72.72;101001.81;5051743;28;20040;-74
2021/12/26 00:33:42;;;;;;;3.13;1.85;;;;;;;-2.60;73.10;100994.91;5066668;28;20052;-75
2021/12/26 00:36:07;;;;;;;1.75;1.65;;;;;;;-2.64;73.22;100993.16;5052573;28;20045;-74
2021/12/26 00:38:33;;;;;;;3.08;1.80;;;;;;;-2.63;73.22;100998.31;5080664;28;20048;-74
2021/12/26 00:40:59;;;;;;;2.47;1.80;;;;;;;-2.67;71.88;100990.53;5081599;28;20215;-74
2021/12/26 00:43:26;;;;;;;2.55;1.83;;;;;;;-2.66;72.50;100989.69;5081292;28;20222;-74
2021/12/26 00:45:51;;;;;;;2.13;1.55;;;;;;;-2.61;73.17;100990.66;5081392;28;20028;-75
2021/12/26 00:48:17;;;;;;;5.00;2.30;;;;;;;-2.60;73.36;100982.09;5081723;28;20112;-74
2021/12/26 00:50:42;;;;;;;2.90;1.55;;;;;;;-2.60;73.15;100985.53;5100405;28;20064;-75
2021/12/26 00:53:08;;;;;;;2.63;2.08;;;;;;;-2.67;71.73;100983.72;5101020;28;20036;-74
2021/12/26 00:55:33;;;;;;;2.75;1.80;;;;;;;-2.69;72.52;100985.41;5101711;28;20101;-74
2021/12/26 00:57:59;;;;;;;2.70;1.95;;;;;;;-2.68;73.30;100984.53;5083624;28;20028;-77
2021/12/26 01:00:30;;;;;;;2.17;1.70;;;;;;;-2.71;72.90;100984.50;5066389;28;20012;-76
2021/12/26 01:02:58;;;;;;;3.63;1.98;;;;;;;-2.74;72.92;100984.47;5083329;28;20039;-76
2021/12/26 01:05:24;;;;;;;2.45;1.80;;;;;;;-2.73;74.04;100987.06;5067029;28;20028;-77
2021/12/26 01:08:03;;;;;;;4.63;1.88;;;;;;;-2.74;73.76;100985.31;5066652;28;20038;-77
2021/12/26 01:10:32;;;;;;;;;;;;;;;-2.74;74.05;100982.75;5101520;28;20030;-77
2021/12/26 01:12:57;;;;;;;4.55;1.88;;;;;;;-2.72;73.77;100987.91;5083258;28;19939;-77
2021/12/26 01:15:23;;;;;;;2.00;1.80;;;;;;;-2.75;74.01;100988.72;5082870;28;20215;-77
2021/12/26 01:17:55;;;;;;;2.40;1.90;;;;;;;-2.75;73.56;100991.28;5066182;28;20234;-76
2021/12/26 01:20:38;;;;;;;2.03;1.83;;;;;;;-2.76;73.10;100988.72;5067046;28;20051;-77
2021/12/26 01:23:04;;;;;;;2.30;1.90;;;;;;;-2.81;73.72;100988.63;5085308;28;20055;-77
2021/12/26 01:25:30;;;;;;;2.10;1.90;;;;;;;-2.82;73.92;100980.91;5082564;28;20035;-77
2021/12/26 01:27:55;;;;;;;5.55;1.92;;;;;;;-2.84;74.49;100980.00;5100670;28;20039;-77
2021/12/26 01:30:21;;;;;;;3.58;1.90;;;;;;;-2.86;73.97;100979.97;5082525;28;20044;-77
2021/12/26 01:32:46;;;;;;;2.50;2.25;;;;;;;-2.88;73.96;100986.78;5100937;28;20230;-77
2021/12/26 01:35:12;;;;;;;3.28;2.00;;;;;;;-2.89;73.53;100985.06;5082839;28;20246;-77
2021/12/26 01:37:37;;;;;;;3.22;1.98;;;;;;;-2.92;73.62;100983.31;5065613;28;20132;-77
2021/12/26 01:40:04;;;;;;;2.78;1.90;;;;;;;-2.93;74.24;100975.59;5100414;28;20040;-77
2021/12/26 01:42:29;;;;;;;2.78;2.20;;;;;;;-2.94;74.94;100969.59;5101028;28;20338;-77
2021/12/26 01:44:55;;;;;;;2.92;1.65;;;;;;;-2.95;74.42;100973.03;5100179;28;20035;-77
2021/12/26 01:47:21;;;;;;;1.90;1.77;;;;;;;-2.98;74.62;100975.53;5082653;28;20620;-76
2021/12/26 01:49:47;;;;;;;3.28;1.90;;;;;;;-3.00;74.37;100968.63;5066112;28;20032;-77
2021/12/26 01:52:12;;;;;;;2.60;1.85;;;;;;;-3.04;73.70;100972.00;5100707;28;20042;-77
2021/12/26 01:54:43;;;;;;;3.35;2.00;;;;;;;-3.07;74.47;100967.69;5100065;28;20046;-76
2021/12/26 01:57:10;;;;;;;2.78;1.73;;;;;;;-3.07;74.31;100970.25;5100451;28;20027;-76
2021/12/26 01:59:36;;;;;;;3.03;2.13;;;;;;;-3.09;74.65;100967.66;5100051;28;20185;-77
2021/12/26 02:02:49;;;;;;;2.42;1.88;;;;;;;-3.06;74.16;100963.41;5098104;28;20095;-76
2021/12/26 02:05:15;;;;;;;2.38;1.83;;;;;;;-3.01;74.84;100965.22;5097462;28;20032;-77
2021/12/26 02:07:41;;;;;;;3.47;2.13;;;;;;;-2.97;74.23;100971.25;5101610;28;20055;-77
2021/12/26 02:10:06;;;;;;;2.85;1.65;;;;;;;-2.95;73.87;100967.91;5100417;28;20353;-77
2021/12/26 02:12:32;;;;;;;4.32;1.73;;;;;;;-2.96;73.42;100962.75;5081504;28;20041;-77
2021/12/26 02:14:57;;;;;;;5.43;2.42;;;;;;;-2.92;73.72;100967.06;5081823;28;20102;-77
2021/12/26 02:17:23;;;;;;;2.85;1.65;;;;;;;-2.92;73.56;100967.94;5099483;28;20040;-77
2021/12/26 02:19:50;;;;;;;4.75;1.85;;;;;;;-2.85;74.15;100968.06;5065003;28;20042;-77
2021/12/26 02:22:23;;;;;;;2.53;1.80;;;;;;;-2.82;74.25;100965.50;5066208;28;20246;-77
2021/12/26 02:27:32;;;;;;;2.50;1.77;;;;;;;-2.80;73.44;100953.56;5100418;28;20067;-77
2021/12/26 02:30:11;;;;;;;2.15;1.75;;;;;;;-2.85;73.44;100945.84;5069179;28;20055;-77
2021/12/26 02:32:37;;;;;;;2.00;1.80;;;;;;;-2.88;74.29;100944.91;5049578;28;20032;-76
2021/12/26 02:35:03;;;;;;;2.28;2.08;;;;;;;-2.90;74.08;100947.47;5082143;28;20040;-77
2021/12/26 02:37:28;;;;;;;17.60;2.50;;;;;;;-2.90;73.84;100944.91;5081318;28;20331;-77
2021/12/26 02:39:54;;;;;;;3.10;1.83;;;;;;;-2.90;73.19;100945.75;5064674;28;20036;-77
2021/12/26 02:42:20;;;;;;;2.30;1.92;;;;;;;-2.93;72.81;100943.16;5081786;28;20050;-77
2021/12/26 02:44:46;;;;;;;2.42;1.73;;;;;;;-2.93;73.72;100942.28;5064754;28;20028;-77
2021/12/26 02:47:11;;;;;;;4.20;1.80;;;;;;;-2.96;72.56;100937.97;5065261;28;20063;-77
2021/12/26 02:49:36;;;;;;;2.30;1.60;;;;;;;-2.97;73.34;100940.50;5064620;28;20346;-77
2021/12/26 02:52:02;;;;;;;2.45;1.92;;;;;;;-2.99;73.20;100943.03;5081983;28;20050;-77
2021/12/26 02:54:28;;;;;;;2.10;1.75;;;;;;;-3.05;72.48;100932.69;5081332;28;20028;-76
2021/12/26 02:56:55;;;;;;;4.32;1.23;;;;;;;-3.02;73.64;100929.31;5099284;28;20036;-76
2021/12/26 02:59:20;;;;;;;3.97;2.08;;;;;;;-3.05;73.17;100919.88;5064458;28;20028;-76
2021/12/26 03:01:46;;;;;;;2.45;1.60;;;;;;;-3.07;73.31;100921.56;5099308;28;20042;-76
2021/12/26 03:04:11;;;;;;;2.28;1.60;;;;;;;-3.05;74.03;100913.91;5081310;28;20041;-76
2021/12/26 03:06:49;;;;;;;3.97;1.90;;;;;;;-3.04;74.29;100907.94;5081151;28;20050;-76
2021/12/26 03:09:14;;;;;;;1.50;1.40;;;;;;;-3.06;73.78;100900.22;5083758;28;20051;-76
2021/12/26 03:11:43;;;;;;;4.10;1.70;;;;;;;-3.08;74.50;100901.88;5099028;28;20032;-77
2021/12/26 03:14:09;;;;;;;2.63;1.85;;;;;;;-3.09;73.78;100892.50;5085554;28;20035;-77
2021/12/26 03:16:34;;;;;;;1.75;1.65;;;;;;;-3.11;73.44;100892.47;5085179;28;20289;-77
2021/12/26 03:19:00;;;;;;;3.88;2.13;;;;;;;-3.09;74.26;100897.63;5084795;28;20039;-77
2021/12/26 03:21:25;;;;;;;3.00;1.90;;;;;;;-3.08;74.65;100889.94;5103660;28;20039;-77
2021/12/26 03:23:51;;;;;;;1.60;1.50;;;;;;;-3.10;74.19;100883.94;5067764;28;20239;-76
2021/12/26 03:26:16;;;;;;;1.90;1.80;;;;;;;-3.07;74.49;100895.94;5085295;28;20331;-77
2021/12/26 03:28:41;;;;;;;1.70;1.60;;;;;;;-3.03;74.61;100900.28;5102715;28;20271;-77
2021/12/26 03:31:07;;;;;;;3.17;1.75;;;;;;;-3.01;73.84;100901.16;5085260;28;20040;-76
2021/12/26 03:33:33;;;;;;;1.95;1.80;;;;;;;-2.98;74.99;100895.22;5103302;28;20281;-77
2021/12/26 03:35:58;;;;;;;4.25;2.20;;;;;;;-2.96;74.14;100894.41;5103367;28;20077;-76
2021/12/26 03:38:23;;;;;;;2.17;1.73;;;;;;;-2.95;74.36;100893.59;5102130;28;20036;-77
2021/12/26 03:40:50;;;;;;;1.80;1.70;;;;;;;-2.97;75.07;100895.22;5101613;28;20216;-76
2021/12/26 03:43:16;;;;;;;5.35;1.67;;;;;;;-2.98;74.35;100896.09;5084665;28;20048;-76
2021/12/26 03:45:42;;;;;;;3.65;1.65;;;;;;;-2.96;73.88;100898.69;5084085;28;20050;-77
2021/12/26 03:48:07;;;;;;;3.15;1.92;;;;;;;-2.97;74.00;100892.66;5103186;28;20389;-77
2021/12/26 03:50:34;;;;;;;4.68;1.85;;;;;;;-2.97;73.64;100894.38;5068107;28;20066;-77
2021/12/26 03:53:01;;;;;;;2.65;1.80;;;;;;;-3.02;73.88;100891.75;5102472;28;20219;-76
2021/12/26 03:55:28;;;;;;;1.75;1.65;;;;;;;-3.06;73.89;100892.53;5102746;28;20384;-77
2021/12/26 03:57:53;;;;;;;3.35;1.40;;;;;;;-3.08;73.83;100889.09;5084185;28;20028;-76
2021/12/26 04:00:19;;;;;;;1.95;1.67;;;;;;;-3.08;74.71;100889.09;5067937;28;20089;-76
2021/12/26 04:02:45;;;;;;;3.03;1.60;;;;;;;-3.11;73.49;100886.47;5102555;28;20039;-77
2021/12/26 04:05:11;;;;;;;3.42;1.90;;;;;;;-3.11;74.43;100886.47;5084737;28;20039;-77
2021/12/26 04:07:36;;;;;;;3.05;1.80;;;;;;;-3.12;75.25;100889.88;5084204;28;20040;-76
2021/12/26 04:10:06;;;;;;;4.13;1.80;;;;;;;-3.09;75.33;100889.94;5068234;28;20071;-76
2021/12/26 04:12:36;;;;;;;2.00;1.80;;;;;;;-3.08;74.15;100892.50;5084548;28;20032;-76
2021/12/26 04:15:05;;;;;;;2.15;1.75;;;;;;;-3.03;75.13;100886.59;5102427;28;20346;-76
2021/12/26 04:17:30;;;;;;;1.98;1.67;;;;;;;-2.99;75.36;100883.25;5084707;28;20036;-76
2021/12/26 04:19:55;;;;;;;3.92;2.25;;;;;;;-2.99;74.87;100881.53;5102410;28;20040;-76
2021/12/26 04:22:21;;;;;;;1.85;1.42;;;;;;;-3.02;73.59;100880.63;5102444;28;20263;-76
2021/12/26 04:24:47;;;;;;;2.13;1.92;;;;;;;-3.03;74.47;100882.34;5100796;28;20139;-76
2021/12/26 04:27:12;;;;;;;2.00;1.80;;;;;;;-3.05;74.76;100873.75;5102377;28;20343;-77
2021/12/26 04:29:38;;;;;;;2.38;1.80;;;;;;;-3.08;74.42;100872.00;5083775;28;20061;-76
2021/12/26 04:32:03;;;;;;;2.70;1.90;;;;;;;-3.12;74.50;100871.94;5084345;28;20036;-76
2021/12/26 04:34:29;;;;;;;2.17;1.80;;;;;;;-3.13;75.00;100868.53;5101754;28;20095;-76
2021/12/26 04:36:54;;;;;;;1.95;1.73;;;;;;;-3.16;74.52;100883.84;5066995;28;20092;-76
2021/12/26 04:39:20;;;;;;;1.90;1.70;;;;;;;-3.16;75.07;100873.59;5083917;28;20035;-76
2021/12/26 04:41:46;;;;;;;2.88;1.55;;;;;;;-3.16;75.07;100878.72;5101466;28;20040;-76
2021/12/26 04:44:12;;;;;;;4.53;2.00;;;;;;;-3.15;74.26;100870.19;5102053;28;20289;-76
2021/12/26 04:46:37;;;;;;;2.60;1.80;;;;;;;-3.15;75.16;100870.19;5083382;28;20044;-76
2021/12/26 04:49:03;;;;;;;2.70;1.58;;;;;;;-3.18;74.48;100871.84;5067457;28;20204;-76
2021/12/26 04:51:28;;;;;;;2.17;1.80;;;;;;;-3.21;74.17;100869.25;5066915;28;20046;-76
2021/12/26 04:53:54;;;;;;;1.92;1.73;;;;;;;-3.23;74.77;100866.66;5083255;28;20043;-77
2021/12/26 04:56:19;;;;;;;2.20;1.92;;;;;;;-3.26;74.81;100858.91;5083610;28;20027;-77
2021/12/26 04:58:44;;;;;;;1.70;1.60;;;;;;;-3.24;74.99;100851.25;5101165;28;20040;-77
2021/12/26 05:01:10;;;;;;;4.57;2.20;;;;;;;-3.20;75.88;100856.47;5101646;28;20036;-76
2021/12/26 05:03:36;;;;;;;1.73;1.63;;;;;;;-3.20;75.07;100851.34;5101468;28;20040;-77
2021/12/26 05:06:01;;;;;;;3.80;1.92;;;;;;;-3.19;75.60;100853.03;5101459;28;20342;-77
2021/12/26 05:08:27;;;;;;;3.65;2.22;;;;;;;-3.19;75.78;100858.16;5083272;28;20047;-77
2021/12/26 05:10:52;;;;;;;3.45;1.70;;;;;;;-3.20;74.86;100866.72;5083242;28;20044;-77
2021/12/26 05:13:18;;;;;;;2.03;1.83;;;;;;;-3.21;75.30;100864.13;5101335;28;20274;-77
2021/12/26 05:15:43;;;;;;;2.00;1.80;;;;;;;-3.23;75.21;100868.34;5099871;28;20269;-77
2021/12/26 05:18:09;;;;;;;2.10;1.88;;;;;;;-3.25;75.30;100868.31;5101426;28;20383;-76
2021/12/26 05:20:34;;;;;;;3.03;1.88;;;;;;;-3.28;74.94;100864.00;5082606;28;20031;-77
2021/12/26 05:23:00;;;;;;;2.80;1.92;;;;;;;-3.30;75.33;100865.69;5082760;28;20051;-77
2021/12/26 05:25:26;;;;;;;2.38;1.85;;;;;;;-3.30;75.38;100855.44;5080946;28;20362;-76
2021/12/26 05:27:52;;;;;;;3.38;1.92;;;;;;;-3.24;75.96;100858.94;5065436;28;20549;-77
2021/12/26 05:30:18;;;;;;;2.20;2.00;;;;;;;-3.22;75.63;100853.00;5103618;28;20342;-76
2021/12/26 05:32:43;;;;;;;2.88;2.10;;;;;;;-3.22;76.33;100852.13;5072597;28;20263;-76
2021/12/26 05:35:11;;;;;;;3.13;1.88;;;;;;;-3.23;75.56;100845.31;5107043;28;20024;-77
2021/12/26 05:37:37;;;;;;;2.60;2.00;;;;;;;-3.25;75.35;100839.28;5109289;28;20056;-77
2021/12/26 05:40:03;;;;;;;2.92;1.83;;;;;;;-3.26;76.20;100843.53;5085054;28;20107;-76
2021/12/26 05:42:30;;;;;;;1.80;1.70;;;;;;;-3.25;76.72;100839.28;5102273;28;20258;-76
2021/12/26 05:44:55;;;;;;;2.03;1.83;;;;;;;-3.21;76.47;100838.50;5109266;28;20031;-76
2021/12/26 05:47:20;;;;;;;3.50;1.83;;;;;;;-3.22;75.97;100842.78;5100209;28;20111;-77
2021/12/26 05:49:46;;;;;;;2.25;2.05;;;;;;;-3.25;75.33;100832.47;5099721;28;20231;-76
2021/12/26 05:52:11;;;;;;;2.25;1.98;;;;;;;-3.24;75.96;100830.75;5082132;28;20031;-76
2021/12/26 05:54:37;;;;;;;2.20;1.67;;;;;;;-3.26;75.97;100825.59;5086757;28;20111;-76
2021/12/26 05:57:02;;;;;;;1.73;1.63;;;;;;;-3.30;75.35;100824.69;5073391;28;20077;-76
2021/12/26 05:59:28;;;;;;;2.25;2.05;;;;;;;-3.30;76.06;100823.84;5087476;28;20218;-76
2021/12/26 06:01:53;;;;;;;1.95;1.85;;;;;;;-3.33;75.10;100818.66;5110878;28;20035;-77
2021/12/26 06:04:18;;;;;;;2.03;1.75;;;;;;;-3.35;75.70;100821.19;5102723;28;20313;-76
2021/12/26 06:06:44;;;;;;;2.13;1.92;;;;;;;-3.37;75.85;100822.03;5100110;28;20064;-76
2021/12/26 06:09:10;;;;;;;2.42;2.22;;;;;;;-3.35;76.17;100828.03;5100255;28;20051;-77
2021/12/26 06:11:35;;;;;;;3.63;1.95;;;;;;;-3.34;76.04;100830.63;5080303;28;20040;-76
2021/12/26 06:14:01;;;;;;;2.13;1.92;;;;;;;-3.34;76.24;100828.06;5097844;28;20087;-76
2021/12/26 06:16:26;;;;;;;4.97;2.00;;;;;;;-3.32;76.81;100826.38;5062678;28;20040;-76
2021/12/26 06:18:52;;;;;;;2.22;2.00;;;;;;;-3.32;76.64;100828.09;5062606;28;20032;-76
2021/12/26 06:21:17;;;;;;;3.95;2.00;;;;;;;-3.33;76.08;100832.34;5097367;28;20039;-76
2021/12/26 06:23:50;;;;;;;2.38;2.00;;;;;;;-3.33;76.33;100829.78;5078886;28;20031;-76
2021/12/26 06:26:15;;;;;;;2.35;2.15;;;;;;;-3.32;76.38;100825.53;5080429;28;20036;-77
2021/12/26 06:28:41;;;;;;;3.22;1.80;;;;;;;-3.32;76.34;100830.63;5078734;28;20247;-76
2021/12/26 06:31:06;;;;;;;2.70;2.00;;;;;;;-3.35;76.50;100835.72;5098339;28;20055;-76
2021/12/26 06:33:32;;;;;;;2.40;2.20;;;;;;;-3.36;76.60;100829.72;5080372;28;20032;-76
2021/12/26 06:35:57;;;;;;;2.35;2.10;;;;;;;-3.35;76.75;100818.63;5080527;28;20345;-76
2021/12/26 06:38:23;;;;;;;2.30;2.03;;;;;;;-3.35;76.47;100821.19;5080205;28;20051;-76
2021/12/26 06:40:48;;;;;;;2.05;1.85;;;;;;;-3.36;76.68;100828.88;5098222;28;20382;-76
2021/12/26 06:43:14;;;;;;;2.78;2.25;;;;;;;-3.37;77.19;100830.56;5080877;28;20028;-77
2021/12/26 06:45:39;;;;;;;4.18;2.17;;;;;;;-3.36;77.27;100829.72;5098061;28;20051;-76
2021/12/26 06:48:06;;;;;;;2.53;2.33;;;;;;;-3.36;76.74;100818.63;5098081;28;20024;-76
2021/12/26 06:50:32;;;;;;;2.20;1.90;;;;;;;-3.37;76.76;100815.19;5080391;28;20036;-76
2021/12/26 06:52:57;;;;;;;2.35;1.92;;;;;;;-3.38;76.18;100820.31;5080376;28;20068;-76
2021/12/26 06:55:23;;;;;;;2.08;1.80;;;;;;;-3.37;76.21;100822.03;5098002;28;20234;-76
2021/12/26 06:57:48;;;;;;;3.05;1.70;;;;;;;-3.36;76.90;100822.03;5098398;28;20027;-77
2021/12/26 07:00:15;;;;;;;2.78;1.90;;;;;;;-3.32;77.58;100813.56;5080525;28;20032;-76
2021/12/26 07:02:41;;;;;;;1.90;1.70;;;;;;;-3.30;76.40;100811.88;5063449;28;20104;-76
2021/12/26 07:05:07;;;;;;;2.13;1.90;;;;;;;-3.29;76.87;100816.19;5098570;28;20032;-77
2021/12/26 07:07:32;;;;;;;3.13;2.20;;;;;;;-3.33;76.53;100811.88;5063589;28;20254;-77
2021/12/26 07:09:58;;;;;;;2.60;2.40;;;;;;;-3.34;76.82;100816.94;5063430;28;20036;-76
2021/12/26 07:12:23;;;;;;;3.28;2.20;;;;;;;-3.37;76.93;100810.06;5098264;28;20039;-76
2021/12/26 07:14:48;;;;;;;2.80;2.30;;;;;;;-3.40;77.04;100801.47;5098182;28;20028;-76
2021/12/26 07:17:14;;;;;;;3.30;2.15;;;;;;;-3.43;77.81;100796.31;5098471;28;20040;-77
2021/12/26 07:19:39;;;;;;;1.83;1.73;;;;;;;-3.49;77.34;100803.06;5097937;28;20048;-77
2021/12/26 07:22:05;;;;;;;3.17;1.65;;;;;;;-3.48;77.14;100801.34;5080440;28;20347;-76
2021/12/26 07:24:31;;;;;;;3.60;2.15;;;;;;;-3.48;77.32;100809.88;5079615;28;20343;-76
2021/12/26 07:26:56;;;;;;;1.90;1.77;;;;;;;-3.49;77.57;100805.63;5084698;28;20037;-77
2021/12/26 07:29:21;;;;;;;2.45;1.90;;;;;;;-3.47;77.75;100811.63;5078293;28;20036;-76
2021/12/26 07:31:47;;;;;;;2.30;2.10;;;;;;;-3.48;77.70;100809.88;5095624;28;20057;-76
2021/12/26 07:34:13;;;;;;;1.90;1.70;;;;;;;-3.47;77.71;100814.19;5082985;28;20039;-76
2021/12/26 07:36:39;;;;;;;3.25;2.20;;;;;;;-3.42;77.70;100810.84;5085076;28;20044;-77
2021/12/26 07:39:04;;;;;;;2.08;1.85;;;;;;;-3.37;78.17;100816.91;5079454;28;20346;-76
2021/12/26 07:41:30;;;;;;;4.80;2.25;;;;;;;-3.38;78.03;100810.91;5069184;28;20074;-76
2021/12/26 07:43:55;;;;;;;1.90;1.80;;;;;;;-3.40;77.31;100810.03;5071646;28;20464;-76
2021/12/26 07:46:21;;;;;;;2.22;2.03;;;;;;;-3.39;77.23;100816.88;5068371;28;20048;-76
2021/12/26 07:48:46;;;;;;;2.20;2.00;;;;;;;-3.45;76.55;100814.22;5089549;28;20032;-76
2021/12/26 07:51:12;;;;;;;2.92;1.92;;;;;;;-3.43;77.60;100817.66;5053974;28;20220;-76
2021/12/26 07:53:37;;;;;;;2.38;1.90;;;;;;;-3.42;77.25;100819.41;5092536;28;20355;-76
2021/12/26 07:56:03;;;;;;;2.28;2.08;;;;;;;-3.46;76.55;100812.47;5086678;28;20042;-76
2021/12/26 07:58:28;;;;;;;2.42;2.22;;;;;;;-3.49;76.72;100818.44;5072281;28;20032;-76
2021/12/26 08:00:54;;;;;;;3.67;2.20;;;;;;;-3.47;77.34;100821.88;5065091;28;20039;-76
2021/12/26 08:03:19;;;;;;;1.95;1.85;;;;;;;-3.45;77.31;100824.47;5074678;28;20047;-76
2021/12/26 08:05:45;;;;;;;2.38;1.88;;;;;;;-3.40;77.89;100835.66;5068046;28;20060;-76
2021/12/26 08:08:10;;;;;;;7.10;2.70;;;;;;;-3.41;76.82;100822.81;5086177;28;20245;-76
2021/12/26 08:10:35;;;;;;;2.65;1.90;;;;;;;-3.40;76.20;100821.97;5085611;28;20043;-76
2021/12/26 08:13:01;;;;;;;2.45;2.10;;;;;;;-3.41;76.42;100826.22;5094103;28;20228;-76
2021/12/26 08:15:26;;;;;;;2.30;2.08;;;;;;;-3.42;76.44;100828.75;5066293;28;20040;-76
2021/12/26 08:17:52;;;;;;;2.50;2.17;;;;;;;-3.45;76.11;100829.59;5074553;28;20048;-76
2021/12/26 08:20:17;;;;;;;3.70;2.35;;;;;;;-3.44;76.27;100831.28;5083812;28;20040;-76
2021/12/26 08:22:42;;;;;;;2.60;1.95;;;;;;;-3.41;76.33;100821.09;5091893;28;20020;-76
2021/12/26 08:25:08;;;;;;;2.92;2.00;;;;;;;-3.40;76.77;100824.53;5068400;28;20339;-77
2021/12/26 08:27:34;;;;;;;2.10;1.90;;;;;;;-3.41;76.87;100821.09;5071797;28;20059;-76
2021/12/26 08:30:00;;;;;;;2.70;1.80;;;;;;;-3.38;76.97;100821.16;5058158;28;20024;-77
2021/12/26 08:32:26;;;;;;;2.38;2.17;;;;;;;-3.34;76.62;100824.63;5086163;28;20037;-77
2021/12/26 08:34:52;;;;;;;1.98;1.88;;;;;;;-3.34;76.86;100825.50;5089158;28;20047;-77
2021/12/26 08:37:18;;;;;;;2.38;1.90;;;;;;;-3.30;77.25;100834.09;5074115;28;20107;-77
2021/12/26 08:39:43;;;;;;;3.15;2.15;;;;;;;-3.26;77.29;100832.44;5077296;28;20223;-78
2021/12/26 08:42:10;;;;;;;3.58;1.98;;;;;;;-3.25;77.05;100832.47;5064060;28;20047;-77
2021/12/26 08:44:35;;;;;;;2.65;2.22;;;;;;;-3.23;77.12;100832.50;5064872;28;20094;-77
2021/12/26 08:47:01;;;;;;;3.22;2.22;;;;;;;-3.20;77.40;100827.41;5068199;28;20346;-77
2021/12/26 08:49:27;;;;;;;2.92;2.50;;;;;;;-3.17;77.54;100830.00;5071765;28;20347;-77
2021/12/26 08:51:52;;;;;;;2.25;2.05;;;;;;;-3.17;77.53;100835.13;5088590;28;20036;-77
2021/12/26 08:54:18;;;;;;;2.63;2.33;;;;;;;-3.17;76.85;100830.00;5040796;28;20032;-77
2021/12/26 08:56:44;;;;;;;2.65;2.25;;;;;;;-3.17;77.78;100828.31;5091233;28;20347;-77
2021/12/26 08:59:09;;;;;;;2.65;2.05;;;;;;;-3.19;76.57;100819.75;5078009;28;20028;-77
2021/12/26 09:01:35;;;;;;;3.38;2.47;;;;;;;-3.20;76.78;100824.84;5069800;28;20039;-77
2021/12/26 09:04:00;;;;;;;2.97;1.90;;;;;;;-3.19;77.43;100821.44;5066474;28;20342;-77
2021/12/26 09:06:26;;;;;;;3.65;2.65;;;;;;;-3.16;77.88;100824.91;5041540;28;20235;-77
2021/12/26 09:08:51;;;;;;;2.75;2.42;;;;;;;-3.17;77.57;100814.66;5074238;28;20027;-76
2021/12/26 09:11:17;;;;;;;7.00;2.58;;;;;;;-3.17;77.31;100822.31;5077915;28;20044;-77
2021/12/26 09:13:43;;;;;;;7.15;2.40;;;;;;;-3.14;77.69;100823.25;5088875;28;20046;-77
2021/12/26 09:16:09;;;;;;;3.35;2.75;;;;;;;-3.14;78.08;100815.56;5069633;28;20043;-76
2021/12/26 09:18:34;;;;;;;6.68;2.47;;;;;;;-3.11;78.77;100824.97;5066872;28;20036;-77
2021/12/26 09:20:59;;;;;;;2.83;2.63;;;;;;;-3.09;78.75;100819.06;5067631;28;20044;-77
2021/12/26 09:23:25;;;;;;;2.78;2.58;;;;;;;-3.06;78.59;100814.81;5091370;28;20044;-77
2021/12/26 09:25:50;;;;;;;3.58;2.65;;;;;;;-3.02;79.11;100814.00;5087866;28;20059;-77
2021/12/26 09:28:16;;;;;;;4.15;2.92;;;;;;;-3.03;78.25;100810.59;5075998;28;20334;-77
2021/12/26 09:30:41;;;;;;;3.17;2.78;;;;;;;-3.00;79.02;100805.50;5060485;28;20435;-77
2021/12/26 09:33:07;;;;;;;3.00;2.58;;;;;;;-2.96;79.08;100812.41;5094549;28;20044;-77
2021/12/26 09:35:32;;;;;;;4.00;2.97;;;;;;;-2.90;79.53;100815.03;5098440;28;20031;-77
2021/12/26 09:37:58;;;;;;;4.63;2.70;;;;;;;-2.86;79.53;100805.69;5098701;28;20044;-77
2021/12/26 09:40:23;;;;;;;3.35;2.80;;;;;;;-2.84;79.16;100810.84;5079524;28;20050;-77
2021/12/26 09:42:48;;;;;;;3.13;2.80;;;;;;;-2.79;79.14;100801.53;5086230;28;20032;-77
2021/12/26 09:45:14;;;;;;;3.92;2.90;;;;;;;-2.76;79.08;100807.53;5065861;28;20044;-77
2021/12/26 09:47:40;;;;;;;3.22;2.92;;;;;;;-2.71;79.07;100807.59;5067931;28;20044;-77
2021/12/26 09:50:06;;;;;;;3.05;2.67;;;;;;;-2.65;80.03;100809.41;5062873;28;20346;-77
2021/12/26 09:52:31;;;;;;;5.63;3.40;;;;;;;-2.61;79.52;100806.88;5063789;28;20054;-78
2021/12/26 09:54:57;;;;;;;8.38;3.13;;;;;;;-2.58;79.20;100801.81;5096523;28;20118;-77
2021/12/26 09:57:23;;;;;;;6.70;3.00;;;;;;;-2.58;79.18;100801.81;5098062;28;20051;-77
2021/12/26 09:59:48;;;;;;;4.28;2.97;;;;;;;-2.57;79.05;100797.53;5033460;28;20077;-78
2021/12/26 10:02:15;;;;;;;3.88;3.40;;;;;;;-2.53;79.40;100794.16;5090180;28;20036;-79
2021/12/26 10:04:41;;;;;;;27.38;3.75;;;;;;;-2.48;79.68;100782.25;5082009;28;20028;-80
2021/12/26 10:07:12;;;;;;;10.82;3.25;;;;;;;-2.42;79.88;100782.34;5050118;28;20039;-78
2021/12/26 10:09:42;;;;;;;3.30;2.78;;;;;;;-2.38;79.38;100784.09;5086777;28;20039;-78
2021/12/26 10:12:08;;;;;;;3.88;3.05;;;;;;;-2.34;79.16;100780.69;5071623;28;20034;-81
2021/12/26 10:14:37;;;;;;;5.07;3.53;;;;;;;-2.32;79.57;100784.13;5041935;28;20024;-78
2021/12/26 10:17:26;;;;;;;3.78;3.17;;;;;;;-2.28;79.95;100794.44;5079024;28;20036;-79
2021/12/26 10:19:58;;;;;;;5.90;3.03;;;;;;;-2.27;79.36;100781.66;5075945;28;20039;-78
2021/12/26 10:22:26;;;;;;;4.38;3.00;;;;;;;-2.25;79.53;100774.81;5060598;28;20027;-78
2021/12/26 10:24:51;;;;;;;5.57;3.47;;;;;;;-2.24;79.31;100766.25;5061483;28;20032;-78
2021/12/26 10:27:21;;;;;;;3.83;3.47;;;;;;;-2.20;79.78;100752.63;5055150;28;20437;-78
2021/12/26 10:29:50;;;;;;;4.72;3.42;;;;;;;-2.19;79.61;100753.50;5075222;28;20336;-78
2021/12/26 10:32:19;;;;;;;;;;;;;;;-2.16;79.38;100754.38;5093615;28;20055;-78
2021/12/26 10:35:09;;;;;;;6.05;2.78;;;;;;;-2.13;79.41;100746.72;5096997;28;19920;-78
2021/12/26 10:37:38;;;;;;;4.45;3.60;;;;;;;-2.08;79.71;100753.59;5059640;28;20043;-78
2021/12/26 10:40:09;;;;;;;4.18;3.72;;;;;;;-2.05;79.59;100753.63;5075901;28;20028;-78
2021/12/26 10:42:35;;;;;;;3.78;3.30;;;;;;;-2.03;79.52;100749.38;5048911;28;20036;-78
2021/12/26 10:45:03;;;;;;;3.90;3.30;;;;;;;-1.99;79.95;100746.00;5087385;28;20119;-77
2021/12/26 10:47:30;;;;;;;5.55;3.60;;;;;;;-1.94;79.96;100736.63;5060043;28;20040;-78
2021/12/26 10:50:14;;;;;;;5.60;4.10;;;;;;;-1.91;79.95;100739.22;5077702;28;20043;-78
2021/12/26 10:52:50;;;;;;;4.25;3.58;;;;;;;-1.86;80.24;100739.25;5093290;28;20032;-78
2021/12/26 10:55:20;;;;;;;4.85;3.70;;;;;;;-1.83;80.34;100737.56;5076892;28;20032;-80
2021/12/26 10:57:47;;;;;;;4.20;3.70;;;;;;;-1.78;80.56;100740.19;5077821;28;20040;-79
2021/12/26 11:00:29;;;;;;;5.80;3.90;;;;;;;-1.75;80.68;100740.19;5076897;28;20087;-79
2021/12/26 11:02:57;;;;;;;4.57;3.83;;;;;;;-1.69;80.81;100736.81;5078104;28;20028;-79
2021/12/26 11:05:39;;;;;;;5.55;4.22;;;;;;;-1.67;80.73;100735.13;5075705;28;20028;-79
2021/12/26 11:08:05;;;;;;;6.28;3.75;;;;;;;-1.63;80.52;100729.19;5092153;28;20036;-79
2021/12/26 11:10:45;;;;;;;5.32;4.47;;;;;;;-1.61;80.94;100737.75;5059868;28;20035;-79
2021/12/26 11:13:20;;;;;;;6.30;4.13;;;;;;;-1.58;81.16;100730.94;5075281;28;20319;-79
2021/12/26 11:15:46;;;;;;;3.72;3.33;;;;;;;-1.51;80.99;100730.97;5068811;28;20032;-81
2021/12/26 11:18:14;;;;;;;5.43;3.70;;;;;;;-1.48;81.09;100726.69;5094809;28;20047;-79
2021/12/26 11:20:43;;;;;;;5.18;3.85;;;;;;;-1.46;80.96;100719.00;5048184;28;20035;-78
2021/12/26 11:23:11;;;;;;;5.38;3.58;;;;;;;-1.45;80.67;100715.59;5087008;28;20351;-78
2021/12/26 11:25:49;;;;;;;7.90;4.28;;;;;;;-1.43;80.49;100712.19;5073567;28;20078;-78
2021/12/26 11:28:15;;;;;;;4.70;4.22;;;;;;;-1.40;80.75;100712.22;5081500;28;20067;-79